createdAt,value
2023-05-11T00:00:44.344Z,9.82
2023-05-11T00:03:11.217Z,10.02
2023-05-11T00:05:38.148Z,8.88
2023-05-11T00:08:04.866Z,8.95
2023-05-11T00:10:31.528Z,9.02
2023-05-11T00:12:58.323Z,9.40
2023-05-11T00:15:24.974Z,9.77
2023-05-11T00:17:51.660Z,9.00
2023-05-11T00:20:18.819Z,8.82
2023-05-11T00:22:46.023Z,9.73
2023-05-11T00:25:13.056Z,10.13
2023-05-11T00:27:41.344Z,10.50
2023-05-11T00:30:10.349Z,10.80
2023-05-11T00:32:37.053Z,11.35
2023-05-11T00:35:03.851Z,10.98
2023-05-11T00:37:30.579Z,11.68
2023-05-11T00:39:57.196Z,10.98
2023-05-11T00:42:23.797Z,11.75
2023-05-11T00:44:50.956Z,11.05
2023-05-11T00:47:17.663Z,11.57
2023-05-11T00:49:45.101Z,11.40
2023-05-11T00:52:11.921Z,12.32
2023-05-11T00:54:40.339Z,12.18
2023-05-11T00:57:08.375Z,12.45
2023-05-11T00:59:35.728Z,11.90
2023-05-11T01:02:03.759Z,11.95
2023-05-11T01:04:31.506Z,11.55
2023-05-11T01:07:12.063Z,12.27
2023-05-11T01:09:46.931Z,11.95
2023-05-11T01:12:36.339Z,11.25
2023-05-11T01:15:13.270Z,12.30
2023-05-11T01:18:13.232Z,12.85
2023-05-11T01:20:44.729Z,11.65
2023-05-11T01:23:28.281Z,11.48
2023-05-11T01:26:31.526Z,11.95
2023-05-11T01:29:26.026Z,10.88
2023-05-11T01:31:55.501Z,12.68
2023-05-11T01:34:25.473Z,12.00
2023-05-11T01:37:16.717Z,11.57
2023-05-11T01:39:51.929Z,12.20
2023-05-11T01:42:22.049Z,11.90
2023-05-11T01:44:53.210Z,12.02
2023-05-11T01:47:23.376Z,12.45
2023-05-11T01:52:20.630Z,12.70
2023-05-11T01:54:49.474Z,12.85
2023-05-11T01:57:17.651Z,12.88
2023-05-11T01:59:45.091Z,12.00
2023-05-11T02:02:13.583Z,12.35
2023-05-11T02:04:41.250Z,12.20
2023-05-11T02:07:10.905Z,12.00
2023-05-11T02:09:38.666Z,11.63
2023-05-11T02:12:06.723Z,11.95
2023-05-11T02:14:36.507Z,12.48
2023-05-11T02:17:05.647Z,10.85
2023-05-11T02:19:34.818Z,10.65
2023-05-11T02:22:02.214Z,10.13
2023-05-11T02:24:30.914Z,9.60
2023-05-11T02:26:58.979Z,9.70
2023-05-11T02:29:26.372Z,9.38
2023-05-11T02:31:59.855Z,8.73
2023-05-11T02:34:36.218Z,9.43
2023-05-11T02:37:08.790Z,9.82
2023-05-11T02:39:36.719Z,9.35
2023-05-11T02:42:23.822Z,10.77
2023-05-11T02:45:04.853Z,8.85
2023-05-11T02:47:36.705Z,8.38
2023-05-11T02:50:06.130Z,8.23
2023-05-11T02:52:34.867Z,8.70
2023-05-11T02:55:02.769Z,8.88
2023-05-11T02:57:29.817Z,8.38
2023-05-11T02:59:56.477Z,7.18
2023-05-11T03:02:23.582Z,7.50
2023-05-11T03:04:50.445Z,8.18
2023-05-11T03:07:17.163Z,7.47
2023-05-11T03:09:44.309Z,8.48
2023-05-11T03:12:11.409Z,7.95
2023-05-11T03:14:38.886Z,8.32
2023-05-11T03:17:06.693Z,8.52
2023-05-11T03:19:33.746Z,8.02
2023-05-11T03:22:01.106Z,8.05
2023-05-11T03:24:28.375Z,7.88
2023-05-11T03:26:56.092Z,7.65
2023-05-11T03:29:25.078Z,7.03
2023-05-11T03:31:51.940Z,7.35
2023-05-11T03:34:18.620Z,8.45
2023-05-11T03:36:48.046Z,7.90
2023-05-11T03:39:16.558Z,7.53
2023-05-11T03:41:46.147Z,7.07
2023-05-11T03:44:14.006Z,7.30
2023-05-11T03:46:41.843Z,7.63
2023-05-11T03:49:10.239Z,7.38
2023-05-11T03:51:39.585Z,7.88
2023-05-11T03:54:07.105Z,7.25
2023-05-11T03:56:37.765Z,7.05
2023-05-11T03:59:04.977Z,7.47
2023-05-11T04:01:32.711Z,7.25
2023-05-11T04:03:59.367Z,7.07
2023-05-11T04:06:26.128Z,7.07
2023-05-11T04:08:52.764Z,7.75
2023-05-11T04:11:19.395Z,7.35
2023-05-11T04:13:46.575Z,6.95
2023-05-11T04:16:13.267Z,7.60
2023-05-11T04:18:39.948Z,7.05
2023-05-11T04:21:06.684Z,6.90
2023-05-11T04:23:33.358Z,7.55
2023-05-11T04:26:00.088Z,6.82
2023-05-11T04:28:28.010Z,6.50
2023-05-11T04:30:56.434Z,7.15
2023-05-11T04:33:26.374Z,6.88
2023-05-11T04:35:54.685Z,6.47
2023-05-11T04:38:22.440Z,6.53
2023-05-11T04:40:50.773Z,6.75
2023-05-11T04:43:18.501Z,6.95
2023-05-11T04:45:51.700Z,6.65
2023-05-11T04:48:20.572Z,6.90
2023-05-11T04:50:47.718Z,7.23
2023-05-11T04:53:14.502Z,7.15
2023-05-11T04:55:41.104Z,6.35
2023-05-11T04:58:07.756Z,6.40
2023-05-11T05:00:34.607Z,6.80
2023-05-11T05:03:01.348Z,7.07
2023-05-11T05:05:28.321Z,6.78
2023-05-11T05:07:54.965Z,6.97
2023-05-11T05:10:22.063Z,6.35
2023-05-11T05:12:48.961Z,6.70
2023-05-11T05:15:15.713Z,6.20
2023-05-11T05:17:42.356Z,6.03
2023-05-11T05:20:09.215Z,6.45
2023-05-11T05:22:35.973Z,5.93
2023-05-11T05:25:02.638Z,5.72
2023-05-11T05:27:29.277Z,5.60
2023-05-11T05:29:55.952Z,5.65
2023-05-11T05:32:22.810Z,5.57
2023-05-11T05:34:49.480Z,5.60
2023-05-11T05:37:16.225Z,5.68
2023-05-11T05:39:42.877Z,4.72
2023-05-11T05:42:09.553Z,5.68
2023-05-11T05:44:36.182Z,5.80
2023-05-11T05:47:02.892Z,5.93
2023-05-11T05:49:29.534Z,5.20
2023-05-11T05:51:56.300Z,4.90
2023-05-11T05:54:23.049Z,4.72
2023-05-11T05:56:50.469Z,4.90
2023-05-11T05:59:18.977Z,5.40
2023-05-11T06:01:47.341Z,4.78
2023-05-11T06:04:14.220Z,5.43
2023-05-11T06:06:40.981Z,4.20
2023-05-11T06:09:07.927Z,5.07
2023-05-11T06:11:34.622Z,4.32
2023-05-11T06:14:01.317Z,4.85
2023-05-11T06:16:28.231Z,4.32
2023-05-11T06:18:55.266Z,4.35
2023-05-11T06:21:22.138Z,5.13
2023-05-11T06:23:48.760Z,4.30
2023-05-11T06:26:15.649Z,4.63
2023-05-11T06:28:42.275Z,4.50
2023-05-11T06:31:08.987Z,4.40
2023-05-11T06:33:35.901Z,4.55
2023-05-11T06:36:06.564Z,4.18
2023-05-11T06:38:33.253Z,4.13
2023-05-11T06:40:59.907Z,4.45
2023-05-11T06:43:26.759Z,3.90
2023-05-11T06:45:53.501Z,3.90
2023-05-11T06:48:22.160Z,4.38
2023-05-11T06:50:49.048Z,4.40
2023-05-11T06:53:18.003Z,3.80
2023-05-11T06:55:44.983Z,3.55
2023-05-11T06:58:12.054Z,5.30
2023-05-11T07:00:39.204Z,4.15
2023-05-11T07:03:06.591Z,4.50
2023-05-11T07:05:34.401Z,3.92
2023-05-11T07:08:01.096Z,4.15
2023-05-11T07:10:27.724Z,3.97
2023-05-11T07:12:54.355Z,3.88
2023-05-11T07:15:21.079Z,4.10
2023-05-11T07:17:48.061Z,3.85
2023-05-11T07:20:14.932Z,3.60
2023-05-11T07:22:41.564Z,3.65
2023-05-11T07:25:09.891Z,3.10
2023-05-11T07:27:36.796Z,3.10
2023-05-11T07:30:06.998Z,3.17
2023-05-11T07:35:00.691Z,3.20
2023-05-11T07:37:27.582Z,3.47
2023-05-11T07:39:54.454Z,3.30
2023-05-11T07:42:21.280Z,3.30
2023-05-11T07:44:47.959Z,3.47
2023-05-11T07:47:14.678Z,3.38
2023-05-11T07:49:44.100Z,3.45
2023-05-11T07:52:11.706Z,2.78
2023-05-11T07:54:40.226Z,3.78
2023-05-11T07:57:07.071Z,3.08
2023-05-11T07:59:33.781Z,3.00
2023-05-11T08:02:00.712Z,3.15
2023-05-11T08:04:28.012Z,3.25
2023-05-11T08:06:54.727Z,2.75
2023-05-11T08:09:22.647Z,3.15
2023-05-11T08:11:49.881Z,2.92
2023-05-11T08:14:17.138Z,3.05
2023-05-11T08:16:43.975Z,3.10
2023-05-11T08:19:11.717Z,3.47
2023-05-11T08:21:38.652Z,3.45
2023-05-11T08:24:05.652Z,2.90
2023-05-11T08:26:33.175Z,3.30
2023-05-11T08:28:59.883Z,3.30
2023-05-11T08:31:26.660Z,3.03
2023-05-11T08:33:53.584Z,3.28
2023-05-11T08:36:20.717Z,3.13
2023-05-11T08:38:47.383Z,3.00
2023-05-11T08:41:14.080Z,3.20
2023-05-11T08:43:41.315Z,3.22
2023-05-11T08:46:09.122Z,3.38
2023-05-11T08:48:36.365Z,2.75
2023-05-11T08:51:06.351Z,3.00
2023-05-11T08:53:33.257Z,2.72
2023-05-11T08:56:01.418Z,2.90
2023-05-11T08:58:29.260Z,3.10
2023-05-11T09:00:57.693Z,2.78
2023-05-11T09:03:25.120Z,2.78
2023-05-11T09:05:52.964Z,2.35
2023-05-11T09:08:20.579Z,2.67
2023-05-11T09:10:48.880Z,2.85
2023-05-11T09:13:16.011Z,2.70
2023-05-11T09:15:42.772Z,3.30
2023-05-11T09:18:09.488Z,2.30
2023-05-11T09:20:36.164Z,2.45
2023-05-11T09:23:03.020Z,2.55
2023-05-11T09:25:33.605Z,2.40
2023-05-11T09:28:00.595Z,2.33
2023-05-11T09:30:27.751Z,2.67
2023-05-11T09:33:00.197Z,2.60
2023-05-11T09:35:32.697Z,2.83
2023-05-11T09:38:05.119Z,2.45
2023-05-11T09:40:35.093Z,2.10
2023-05-11T09:43:03.840Z,2.55
2023-05-11T09:45:41.940Z,1.90
2023-05-11T09:48:35.369Z,2.60
2023-05-11T09:51:04.712Z,2.50
2023-05-11T09:53:41.272Z,2.20
2023-05-11T09:56:08.415Z,2.20
2023-05-11T09:58:52.306Z,2.15
2023-05-11T10:01:29.311Z,2.25
2023-05-11T10:04:09.010Z,1.95
2023-05-11T10:06:53.411Z,2.03
2023-05-11T10:09:24.787Z,2.17
2023-05-11T10:11:53.447Z,2.10
2023-05-11T10:14:20.528Z,1.85
2023-05-11T10:16:47.934Z,1.92
2023-05-11T10:19:15.910Z,1.58
2023-05-11T10:21:43.420Z,1.80
2023-05-11T10:24:10.840Z,1.80
2023-05-11T10:26:38.828Z,2.10
2023-05-11T10:29:06.062Z,1.98
2023-05-11T10:31:33.582Z,1.80
2023-05-11T10:34:01.491Z,1.90
2023-05-11T10:36:28.683Z,2.15
2023-05-11T10:38:55.447Z,2.20
2023-05-11T10:41:41.564Z,2.38
2023-05-11T10:44:40.681Z,2.13
2023-05-11T10:47:41.743Z,2.53
2023-05-11T10:50:29.604Z,2.63
2023-05-11T10:53:19.756Z,2.28
2023-05-11T10:59:03.347Z,2.58
2023-05-11T11:01:41.752Z,2.47
2023-05-11T11:04:13.314Z,2.65
2023-05-11T11:06:42.092Z,2.42
2023-05-11T11:09:13.344Z,2.28
2023-05-11T11:11:50.242Z,2.47
2023-05-11T11:14:18.457Z,2.90
2023-05-11T11:17:16.397Z,2.10
2023-05-11T11:19:43.494Z,2.03
2023-05-11T11:22:35.378Z,2.15
2023-05-11T11:25:05.297Z,1.85
2023-05-11T11:27:41.288Z,1.80
2023-05-11T11:30:25.355Z,1.75
2023-05-11T11:33:16.279Z,1.92
2023-05-11T11:35:43.207Z,1.80
2023-05-11T11:38:20.003Z,1.90
2023-05-11T11:40:51.692Z,1.70
2023-05-11T11:43:24.566Z,2.08
2023-05-11T11:45:55.333Z,1.90
2023-05-11T11:48:28.787Z,1.98
2023-05-11T11:51:10.392Z,2.20
2023-05-11T11:53:41.263Z,1.75
2023-05-11T11:56:14.190Z,2.10
2023-05-11T11:58:46.857Z,1.88
2023-05-11T12:01:18.120Z,1.95
2023-05-11T12:03:47.124Z,1.70
2023-05-11T12:06:15.037Z,2.10
2023-05-11T12:08:43.422Z,1.70
2023-05-11T12:11:10.069Z,1.92
2023-05-11T12:13:37.100Z,1.75
2023-05-11T12:16:15.092Z,2.03
2023-05-11T12:18:51.508Z,1.95
2023-05-11T12:21:27.510Z,1.77
2023-05-11T12:24:02.092Z,1.67
2023-05-11T12:26:30.130Z,1.95
2023-05-11T12:29:15.980Z,1.73
2023-05-11T12:31:44.004Z,1.90
2023-05-11T12:34:16.074Z,1.90
2023-05-11T12:36:44.352Z,1.85
2023-05-11T12:39:26.753Z,1.83
2023-05-11T12:41:56.188Z,1.75
2023-05-11T12:44:25.896Z,2.03
2023-05-11T12:46:53.299Z,1.70
2023-05-11T12:49:26.187Z,1.80
2023-05-11T12:51:59.953Z,1.60
2023-05-11T12:54:27.760Z,1.85
2023-05-11T12:56:54.456Z,2.15
2023-05-11T12:59:40.503Z,2.13
2023-05-11T13:02:17.359Z,1.80
2023-05-11T13:04:45.578Z,2.00
2023-05-11T13:07:13.373Z,1.88
2023-05-11T13:09:41.284Z,1.63
2023-05-11T13:12:17.149Z,1.63
2023-05-11T13:14:45.695Z,1.90
2023-05-11T13:17:12.557Z,1.40
2023-05-11T13:19:39.744Z,2.08
2023-05-11T13:22:07.329Z,1.40
2023-05-11T13:24:34.680Z,1.88
2023-05-11T13:27:01.743Z,1.73
2023-05-11T13:29:28.657Z,1.83
2023-05-11T13:31:55.355Z,1.63
2023-05-11T13:34:22.164Z,1.80
2023-05-11T13:36:49.289Z,1.90
2023-05-11T13:39:16.232Z,1.70
2023-05-11T13:41:43.019Z,1.92
2023-05-11T13:44:09.837Z,1.60
2023-05-11T13:46:36.498Z,1.80
2023-05-11T13:49:03.804Z,2.13
2023-05-11T13:51:31.059Z,1.50
2023-05-11T13:53:59.445Z,2.10
2023-05-11T13:56:26.123Z,1.95
2023-05-11T13:58:52.759Z,1.70
2023-05-11T14:01:19.679Z,1.75
2023-05-11T14:03:52.587Z,1.50
2023-05-11T14:06:21.822Z,1.83
2023-05-11T14:08:48.621Z,1.85
2023-05-11T14:11:15.375Z,1.50
2023-05-11T14:13:42.139Z,1.65
2023-05-11T14:16:10.224Z,1.67
2023-05-11T14:18:37.021Z,1.60
2023-05-11T14:21:03.803Z,2.00
2023-05-11T14:23:30.535Z,2.00
2023-05-11T14:25:57.261Z,1.58
2023-05-11T14:28:24.053Z,1.65
2023-05-11T14:30:50.850Z,1.58
2023-05-11T14:33:17.509Z,1.52
2023-05-11T14:35:44.358Z,1.88
2023-05-11T14:38:11.088Z,1.73
2023-05-11T14:40:37.750Z,1.77
2023-05-11T14:43:04.460Z,2.25
2023-05-11T14:45:32.185Z,1.83
2023-05-11T14:47:59.121Z,1.85
2023-05-11T14:50:25.964Z,1.77
2023-05-11T14:52:52.797Z,2.22
2023-05-11T14:55:19.823Z,2.20
2023-05-11T14:57:46.714Z,1.80
2023-05-11T15:00:13.922Z,1.77
2023-05-11T15:02:41.089Z,1.70
2023-05-11T15:05:08.246Z,1.75
2023-05-11T15:07:35.122Z,1.90
2023-05-11T15:10:02.202Z,1.70
2023-05-11T15:12:29.862Z,2.10
2023-05-11T15:14:56.703Z,2.20
2023-05-11T15:17:23.379Z,1.80
2023-05-11T15:19:50.035Z,2.08
2023-05-11T15:22:17.490Z,1.98
2023-05-11T15:24:44.383Z,1.92
2023-05-11T15:27:11.225Z,1.80
2023-05-11T15:29:37.942Z,2.35
2023-05-11T15:32:04.940Z,1.80
2023-05-11T15:34:31.628Z,2.00
2023-05-11T15:37:00.243Z,1.90
2023-05-11T15:39:26.915Z,1.92
2023-05-11T15:41:53.624Z,1.95
2023-05-11T15:44:20.782Z,1.98
2023-05-11T15:46:47.411Z,1.95
2023-05-11T15:49:14.066Z,2.10
2023-05-11T15:51:40.958Z,2.58
2023-05-11T15:54:08.045Z,1.80
2023-05-11T15:56:35.066Z,2.30
2023-05-11T15:59:01.930Z,1.90
2023-05-11T16:01:28.586Z,2.10
2023-05-11T16:03:56.536Z,1.80
2023-05-11T16:06:23.308Z,2.15
2023-05-11T16:08:49.938Z,2.10
2023-05-11T16:11:18.725Z,1.83
2023-05-11T16:13:46.634Z,2.20
2023-05-11T16:16:13.862Z,2.58
2023-05-11T16:18:40.663Z,2.17
2023-05-11T16:21:08.326Z,2.72
2023-05-11T16:23:35.036Z,2.55
2023-05-11T16:26:01.692Z,2.33
2023-05-11T16:28:28.448Z,2.30
2023-05-11T16:30:58.488Z,2.60
2023-05-11T16:33:26.157Z,2.30
2023-05-11T16:35:53.321Z,2.10
2023-05-11T16:38:21.487Z,2.25
2023-05-11T16:40:51.265Z,2.13
2023-05-11T16:43:17.914Z,2.10
2023-05-11T16:45:44.632Z,2.08
2023-05-11T16:48:11.387Z,2.60
2023-05-11T16:50:38.491Z,2.15
2023-05-11T16:53:05.488Z,2.15
2023-05-11T16:55:32.094Z,2.35
2023-05-11T16:57:59.094Z,2.05
2023-05-11T17:00:26.058Z,1.95
2023-05-11T17:02:52.778Z,2.10
2023-05-11T17:05:21.505Z,2.42
2023-05-11T17:07:48.218Z,2.25
2023-05-11T17:10:15.124Z,2.25
2023-05-11T17:12:41.804Z,2.13
2023-05-11T17:15:11.850Z,2.10
2023-05-11T17:17:39.146Z,2.30
2023-05-11T17:20:07.823Z,2.40
2023-05-11T17:22:34.987Z,2.60
2023-05-11T17:25:03.816Z,2.08
2023-05-11T17:27:32.000Z,2.40
2023-05-11T17:29:58.630Z,2.70
2023-05-11T17:32:25.512Z,2.78
2023-05-11T17:34:52.327Z,2.20
2023-05-11T17:37:30.533Z,2.50
2023-05-11T17:39:59.577Z,2.20
2023-05-11T17:42:26.250Z,2.42
2023-05-11T17:44:52.892Z,2.97
2023-05-11T17:47:19.766Z,2.53
2023-05-11T17:49:46.431Z,2.58
2023-05-11T17:52:13.641Z,2.42
2023-05-11T17:54:40.289Z,2.65
2023-05-11T17:57:06.933Z,3.58
2023-05-11T17:59:33.930Z,2.53
2023-05-11T18:02:01.299Z,2.92
2023-05-11T18:04:28.382Z,2.33
2023-05-11T18:06:54.981Z,3.10
2023-05-11T18:09:21.878Z,5.03
2023-05-11T18:11:48.639Z,3.22
2023-05-11T18:14:15.358Z,3.00
2023-05-11T18:16:41.997Z,3.10
2023-05-11T18:19:08.894Z,2.78
2023-05-11T18:21:36.486Z,3.00
2023-05-11T18:24:04.726Z,2.80
2023-05-11T18:26:31.398Z,2.78
2023-05-11T18:28:58.043Z,3.08
2023-05-11T18:31:24.787Z,2.90
2023-05-11T18:33:51.404Z,2.97
2023-05-11T18:36:18.573Z,3.00
2023-05-11T18:38:45.449Z,2.85
2023-05-11T18:41:12.053Z,2.63
2023-05-11T18:43:38.801Z,2.83
2023-05-11T18:46:09.039Z,2.90
2023-05-11T18:48:35.912Z,2.90
2023-05-11T18:51:02.887Z,3.03
2023-05-11T18:53:29.978Z,2.80
2023-05-11T18:55:56.715Z,2.88
2023-05-11T18:58:23.629Z,2.80
2023-05-11T19:00:51.249Z,2.88
2023-05-11T19:03:19.821Z,3.10
2023-05-11T19:05:47.198Z,3.50
2023-05-11T19:08:14.026Z,3.00
2023-05-11T19:10:40.787Z,3.22
2023-05-11T19:13:07.929Z,3.00
2023-05-11T19:15:34.895Z,3.20
2023-05-11T19:18:01.674Z,3.00
2023-05-11T19:20:28.299Z,3.75
2023-05-11T19:22:55.080Z,2.80
2023-05-11T19:25:22.618Z,3.22
2023-05-11T19:27:49.404Z,2.92
2023-05-11T19:30:16.044Z,3.55
2023-05-11T19:32:44.384Z,3.22
2023-05-11T19:35:12.756Z,3.25
2023-05-11T19:37:39.461Z,3.53
2023-05-11T19:40:43.075Z,3.13
2023-05-11T19:42:53.977Z,3.17
2023-05-11T19:45:20.719Z,3.30
2023-05-11T19:47:47.419Z,3.13
2023-05-11T19:50:14.800Z,3.38
2023-05-11T19:52:41.491Z,3.40
2023-05-11T19:55:08.717Z,3.30
2023-05-11T19:57:37.393Z,3.45
2023-05-11T20:00:08.160Z,3.25
2023-05-11T20:02:35.804Z,3.60
2023-05-11T20:05:04.072Z,3.78
2023-05-11T20:07:30.923Z,3.30
2023-05-11T20:09:57.631Z,3.53
2023-05-11T20:12:24.350Z,3.65
2023-05-11T20:14:52.559Z,3.42
2023-05-11T20:17:19.242Z,3.65
2023-05-11T20:19:45.990Z,3.42
2023-05-11T20:22:13.410Z,4.00
2023-05-11T20:24:40.151Z,3.08
2023-05-11T20:27:09.690Z,3.50
2023-05-11T20:29:36.568Z,3.17
2023-05-11T20:32:05.098Z,3.50
2023-05-11T20:34:31.948Z,4.30
2023-05-11T20:36:58.681Z,4.40
2023-05-11T20:39:25.610Z,2.90
2023-05-11T20:41:52.380Z,3.75
2023-05-11T20:44:19.274Z,3.53
2023-05-11T20:46:47.257Z,3.55
2023-05-11T20:49:20.144Z,3.95
2023-05-11T20:51:54.441Z,3.58
2023-05-11T20:54:22.819Z,3.88
2023-05-11T20:56:50.163Z,3.90
2023-05-11T21:01:46.936Z,4.18
2023-05-11T21:04:13.690Z,3.30
2023-05-11T21:06:40.570Z,3.50
2023-05-11T21:09:07.744Z,3.60
2023-05-11T21:11:34.403Z,4.20
2023-05-11T21:14:01.158Z,4.03
2023-05-11T21:16:27.857Z,3.70
2023-05-11T21:18:54.597Z,4.57
2023-05-11T21:21:22.019Z,3.83
2023-05-11T21:23:48.670Z,4.43
2023-05-11T21:26:15.721Z,4.20
2023-05-11T21:28:42.442Z,4.10
2023-05-11T21:31:09.753Z,3.95
2023-05-11T21:33:36.663Z,4.72
2023-05-11T21:36:05.804Z,4.65
2023-05-11T21:38:32.573Z,4.37
2023-05-11T21:40:59.375Z,4.28
2023-05-11T21:43:26.118Z,4.70
2023-05-11T21:45:53.078Z,5.05
2023-05-11T21:48:20.521Z,4.07
2023-05-11T21:50:53.105Z,4.00
2023-05-11T21:53:19.914Z,4.72
2023-05-11T21:55:46.545Z,4.22
2023-05-11T21:58:13.205Z,4.43
2023-05-11T22:00:39.841Z,4.65
2023-05-11T22:03:06.588Z,4.30
2023-05-11T22:05:33.363Z,4.00
2023-05-11T22:08:13.324Z,3.92
2023-05-11T22:10:43.030Z,4.07
2023-05-11T22:13:09.834Z,5.18
2023-05-11T22:15:36.524Z,4.60
2023-05-11T22:18:03.579Z,4.28
2023-05-11T22:20:31.832Z,4.32
2023-05-11T22:22:59.371Z,4.22
2023-05-11T22:25:26.601Z,4.40
2023-05-11T22:27:53.414Z,4.82
2023-05-11T22:30:20.546Z,4.38
2023-05-11T22:32:47.433Z,4.30
2023-05-11T22:35:14.292Z,4.53
2023-05-11T22:37:41.105Z,4.45
2023-05-11T22:40:08.776Z,4.20
2023-05-11T22:42:35.681Z,4.25
2023-05-11T22:45:02.590Z,4.70
2023-05-11T22:47:29.389Z,5.13
2023-05-11T22:49:56.274Z,4.80
2023-05-11T22:52:23.000Z,4.43
2023-05-11T22:54:54.701Z,4.68
2023-05-11T22:57:23.940Z,4.53
2023-05-11T22:59:50.680Z,4.90
2023-05-11T23:02:17.353Z,4.47
2023-05-11T23:04:44.492Z,5.32
2023-05-11T23:07:12.956Z,4.85
2023-05-11T23:09:39.719Z,5.18
2023-05-11T23:12:06.738Z,5.18
2023-05-11T23:14:33.472Z,5.70
2023-05-11T23:17:00.189Z,5.45
2023-05-11T23:19:26.892Z,5.20
2023-05-11T23:21:54.130Z,5.00
2023-05-11T23:24:20.992Z,5.53
2023-05-11T23:26:47.660Z,5.43
2023-05-11T23:29:14.407Z,4.70
2023-05-11T23:31:41.115Z,5.32
2023-05-11T23:34:07.954Z,5.47
2023-05-11T23:36:34.685Z,5.03
2023-05-11T23:39:01.531Z,5.03
2023-05-11T23:41:28.172Z,4.80
2023-05-11T23:43:54.875Z,4.95
2023-05-11T23:46:21.593Z,4.60
2023-05-11T23:48:48.595Z,5.03
2023-05-11T23:51:16.491Z,5.07
2023-05-11T23:53:43.250Z,5.07
2023-05-11T23:56:09.944Z,5.00
2023-05-11T23:58:36.695Z,4.82
